createdAt,value
2019-06-01T00:01:02.817Z,5.60
2019-06-01T00:03:34.731Z,5.33
2019-06-01T00:06:06.121Z,5.80
2019-06-01T00:08:37.185Z,5.70
2019-06-01T00:11:08.189Z,5.50
2019-06-01T00:13:45.604Z,5.28
2019-06-01T00:16:16.042Z,5.35
2019-06-01T00:18:48.357Z,5.37
2019-06-01T00:21:23.840Z,5.80
2019-06-01T00:24:03.065Z,5.83
2019-06-01T00:26:33.637Z,5.30
2019-06-01T00:29:06.811Z,4.75
2019-06-01T00:31:38.757Z,5.20
2019-06-01T00:34:09.936Z,5.83
2019-06-01T00:36:43.788Z,5.67
2019-06-01T00:39:18.393Z,5.58
2019-06-01T00:41:50.233Z,5.62
2019-06-01T00:44:24.269Z,5.58
2019-06-01T00:46:54.997Z,5.67
2019-06-01T00:49:25.826Z,5.22
2019-06-01T00:51:57.146Z,5.40
2019-06-01T00:54:31.124Z,5.53
2019-06-01T00:57:14.543Z,6.28
2019-06-01T00:59:48.078Z,6.40
2019-06-01T01:02:20.836Z,6.33
2019-06-01T01:05:21.221Z,6.53
2019-06-01T01:07:53.542Z,6.70
2019-06-01T01:10:33.504Z,6.92
2019-06-01T01:13:20.350Z,7.25
2019-06-01T01:16:06.007Z,6.60
2019-06-01T01:19:11.326Z,7.08
2019-06-01T01:21:42.200Z,6.92
2019-06-01T01:24:15.023Z,6.92
2019-06-01T01:26:46.622Z,6.70
2019-06-01T01:29:18.145Z,6.47
2019-06-01T01:31:49.178Z,7.70
2019-06-01T01:34:20.177Z,6.47
2019-06-01T01:36:53.059Z,7.08
2019-06-01T01:39:26.111Z,7.30
2019-06-01T01:42:02.625Z,7.72
2019-06-01T01:44:34.221Z,6.87
2019-06-01T01:47:05.472Z,7.90
2019-06-01T01:49:52.080Z,7.83
2019-06-01T01:52:22.657Z,8.03
2019-06-01T01:54:54.735Z,8.13
2019-06-01T01:57:26.539Z,8.20
2019-06-01T01:59:57.421Z,8.48
2019-06-01T02:02:32.196Z,8.85
2019-06-01T02:05:03.860Z,8.98
2019-06-01T02:07:36.461Z,9.35
2019-06-01T02:10:07.893Z,9.48
2019-06-01T02:12:41.436Z,9.95
2019-06-01T02:15:17.931Z,10.23
2019-06-01T02:17:50.421Z,8.93
2019-06-01T02:20:24.518Z,9.88
2019-06-01T02:23:28.430Z,9.48
2019-06-01T02:26:12.253Z,10.48
2019-06-01T02:28:45.458Z,9.98
2019-06-01T02:31:41.415Z,10.15
2019-06-01T02:34:06.318Z,9.80
2019-06-01T02:36:58.020Z,10.20
2019-06-01T02:42:59.180Z,9.68
2019-06-01T02:45:43.019Z,9.68
2019-06-01T02:48:24.903Z,10.20
2019-06-01T02:50:59.908Z,10.58
2019-06-01T02:53:31.208Z,11.28
2019-06-01T02:56:04.190Z,11.15
2019-06-01T02:58:36.338Z,10.98
2019-06-01T03:01:35.980Z,10.20
2019-06-01T03:04:10.736Z,11.43
2019-06-01T03:06:53.767Z,10.32
2019-06-01T03:09:27.031Z,10.98
2019-06-01T03:12:02.473Z,10.25
2019-06-01T03:14:48.029Z,11.33
2019-06-01T03:17:23.681Z,11.40
2019-06-01T03:20:11.695Z,10.80
2019-06-01T03:22:44.805Z,11.40
2019-06-01T03:25:16.062Z,10.35
2019-06-01T03:28:02.131Z,11.22
2019-06-01T03:30:45.912Z,12.30
2019-06-01T03:33:17.662Z,12.00
2019-06-01T03:35:49.379Z,11.97
2019-06-01T03:38:38.901Z,11.45
2019-06-01T03:41:10.387Z,11.18
2019-06-01T03:43:40.955Z,11.83
2019-06-01T03:46:13.051Z,12.35
2019-06-01T03:48:44.499Z,12.33
2019-06-01T03:51:30.672Z,12.30
2019-06-01T03:54:06.906Z,12.33
2019-06-01T03:56:42.738Z,12.00
2019-06-01T03:59:14.948Z,13.72
2019-06-01T04:01:47.248Z,12.90
2019-06-01T04:04:18.686Z,13.80
2019-06-01T04:06:54.961Z,12.58
2019-06-01T04:09:25.888Z,14.18
2019-06-01T04:12:09.777Z,14.20
2019-06-01T04:14:40.612Z,13.50
2019-06-01T04:17:12.244Z,14.78
2019-06-01T04:19:44.977Z,14.33
2019-06-01T04:22:16.742Z,13.70
2019-06-01T04:24:59.526Z,13.13
2019-06-01T04:27:30.692Z,12.80
2019-06-01T04:30:02.532Z,13.58
2019-06-01T04:32:48.540Z,13.38
2019-06-01T04:35:07.232Z,14.18
2019-06-01T04:37:38.218Z,13.40
2019-06-01T04:40:09.557Z,13.18
2019-06-01T04:42:40.426Z,13.35
2019-06-01T04:45:20.964Z,13.18
2019-06-01T04:47:51.456Z,12.30
2019-06-01T04:50:24.213Z,12.03
2019-06-01T04:52:55.572Z,12.58
2019-06-01T04:55:25.638Z,12.43
2019-06-01T04:58:00.742Z,12.00
2019-06-01T05:00:31.940Z,12.43
2019-06-01T05:03:07.166Z,12.33
2019-06-01T05:05:37.977Z,12.18
2019-06-01T05:08:12.666Z,12.18
2019-06-01T05:10:45.546Z,11.65
2019-06-01T05:13:23.464Z,11.30
2019-06-01T05:15:54.532Z,12.30
2019-06-01T05:18:25.417Z,11.57
2019-06-01T05:20:57.040Z,11.22
2019-06-01T05:23:40.591Z,11.35
2019-06-01T05:26:12.851Z,11.10
2019-06-01T05:28:50.577Z,11.45
2019-06-01T05:31:25.218Z,9.73
2019-06-01T06:38:03.627Z,7.62
2019-06-01T06:41:00.870Z,6.08
2019-06-01T06:44:38.632Z,6.17
2019-06-01T06:51:34.672Z,6.60
2019-06-01T06:54:37.954Z,6.35
2019-06-01T06:57:09.329Z,6.97
2019-06-01T07:00:30.507Z,6.92
2019-06-01T07:03:35.044Z,5.87
2019-06-01T07:10:24.316Z,6.67
2019-06-01T07:16:38.087Z,6.60
2019-06-01T07:19:48.041Z,5.53
2019-06-01T07:22:54.884Z,6.37
2019-06-01T07:25:34.287Z,6.83
2019-06-01T07:28:36.029Z,6.30
2019-06-01T07:35:42.805Z,5.42
2019-06-01T07:42:24.463Z,5.65
2019-06-01T07:57:48.012Z,5.60
2019-06-01T08:00:18.952Z,6.03
2019-06-01T08:02:49.766Z,4.97
2019-06-01T08:05:23.268Z,5.33
2019-06-01T08:07:53.402Z,5.55
2019-06-01T08:10:26.000Z,5.35
2019-06-01T08:12:56.891Z,5.80
2019-06-01T08:15:28.360Z,5.85
2019-06-01T08:17:59.851Z,5.72
2019-06-01T09:22:36.749Z,2.22
2019-06-01T09:25:12.885Z,2.70
2019-06-01T09:27:47.988Z,2.30
2019-06-01T09:30:20.785Z,2.45
2019-06-01T09:32:51.068Z,1.90
2019-06-01T09:35:21.683Z,2.25
2019-06-01T09:37:52.298Z,1.77
2019-06-01T09:40:22.593Z,2.10
